sensor_id;sensor_type;location;lat;lon;timestamp;pressure;altitude;pressure_sealevel;temperature;humidity
13068;BME280;6600;51.362;6.686;2023-04-28T00:00:16;100922.81;;;11.55;74.03
13068;BME280;6600;51.362;6.686;2023-04-28T00:02:42;100910.13;;;11.38;74.58
13068;BME280;6600;51.362;6.686;2023-04-28T00:05:07;100915.94;;;11.35;76.08
13068;BME280;6600;51.362;6.686;2023-04-28T00:07:33;100913.56;;;11.20;77.84
13068;BME280;6600;51.362;6.686;2023-04-28T00:09:58;100912.34;;;11.16;79.02
13068;BME280;6600;51.362;6.686;2023-04-28T00:12:24;100903.66;;;11.14;79.23
13068;BME280;6600;51.362;6.686;2023-04-28T00:14:49;100902.03;;;11.13;78.71
13068;BME280;6600;51.362;6.686;2023-04-28T00:17:14;100898.97;;;11.09;79.16
13068;BME280;6600;51.362;6.686;2023-04-28T00:19:40;100895.47;;;11.09;79.16
13068;BME280;6600;51.362;6.686;2023-04-28T00:22:05;100886.38;;;11.10;79.70
13068;BME280;6600;51.362;6.686;2023-04-28T00:24:30;100873.56;;;11.12;80.58
13068;BME280;6600;51.362;6.686;2023-04-28T00:26:58;100874.41;;;11.12;81.14
13068;BME280;6600;51.362;6.686;2023-04-28T00:29:23;100863.28;;;11.09;79.56
13068;BME280;6600;51.362;6.686;2023-04-28T00:31:49;100865.91;;;11.15;79.71
13068;BME280;6600;51.362;6.686;2023-04-28T00:34:14;100872.69;;;11.18;79.61
13068;BME280;6600;51.362;6.686;2023-04-28T00:36:39;100867.78;;;11.15;79.38
13068;BME280;6600;51.362;6.686;2023-04-28T00:39:05;100869.66;;;11.08;78.28
13068;BME280;6600;51.362;6.686;2023-04-28T00:41:33;100868.22;;;11.12;77.88
13068;BME280;6600;51.362;6.686;2023-04-28T00:43:58;100869.22;;;11.11;77.73
13068;BME280;6600;51.362;6.686;2023-04-28T00:46:27;100861.19;;;11.11;78.76
13068;BME280;6600;51.362;6.686;2023-04-28T00:48:53;100860.78;;;11.07;78.42
13068;BME280;6600;51.362;6.686;2023-04-28T00:51:19;100868.00;;;11.07;78.60
13068;BME280;6600;51.362;6.686;2023-04-28T00:53:45;100863.09;;;11.04;80.64
13068;BME280;6600;51.362;6.686;2023-04-28T00:56:11;100862.28;;;10.97;81.72
13068;BME280;6600;51.362;6.686;2023-04-28T00:58:37;100850.19;;;10.88;82.22
13068;BME280;6600;51.362;6.686;2023-04-28T01:01:03;100846.03;;;10.92;82.84
13068;BME280;6600;51.362;6.686;2023-04-28T01:03:29;100834.94;;;10.88;84.04
13068;BME280;6600;51.362;6.686;2023-04-28T01:05:54;100830.81;;;10.86;85.34
13068;BME280;6600;51.362;6.686;2023-04-28T01:08:26;100825.91;;;10.76;85.94
13068;BME280;6600;51.362;6.686;2023-04-28T01:10:52;100824.31;;;10.69;86.15
13068;BME280;6600;51.362;6.686;2023-04-28T01:13:17;100834.59;;;10.72;86.33
13068;BME280;6600;51.362;6.686;2023-04-28T01:15:42;100834.19;;;10.75;87.01
13068;BME280;6600;51.362;6.686;2023-04-28T01:18:08;100827.16;;;10.74;87.66
13068;BME280;6600;51.362;6.686;2023-04-28T01:20:33;100831.69;;;10.73;88.41
13068;BME280;6600;51.362;6.686;2023-04-28T01:22:59;100835.44;;;10.65;89.38
13068;BME280;6600;51.362;6.686;2023-04-28T01:25:24;100842.88;;;10.63;90.46
13068;BME280;6600;51.362;6.686;2023-04-28T01:27:49;100843.31;;;10.60;90.66
13068;BME280;6600;51.362;6.686;2023-04-28T01:30:15;100841.25;;;10.56;90.90
13068;BME280;6600;51.362;6.686;2023-04-28T01:32:40;100843.75;;;10.51;91.34
13068;BME280;6600;51.362;6.686;2023-04-28T01:35:05;100832.22;;;10.50;91.79
13068;BME280;6600;51.362;6.686;2023-04-28T01:37:31;100831.19;;;10.51;92.39
13068;BME280;6600;51.362;6.686;2023-04-28T01:39:56;100837.16;;;10.53;92.70
13068;BME280;6600;51.362;6.686;2023-04-28T01:42:21;100835.47;;;10.59;93.04
13068;BME280;6600;51.362;6.686;2023-04-28T01:44:47;100822.72;;;10.54;93.36
13068;BME280;6600;51.362;6.686;2023-04-28T01:47:12;100829.13;;;10.53;93.81
13068;BME280;6600;51.362;6.686;2023-04-28T01:49:38;100816.13;;;10.57;94.14
13068;BME280;6600;51.362;6.686;2023-04-28T01:52:03;100813.22;;;10.58;94.41
13068;BME280;6600;51.362;6.686;2023-04-28T01:54:28;100812.19;;;10.59;94.38
13068;BME280;6600;51.362;6.686;2023-04-28T01:56:54;100812.19;;;10.59;95.42
13068;BME280;6600;51.362;6.686;2023-04-28T01:59:19;100805.78;;;10.60;95.78
13068;BME280;6600;51.362;6.686;2023-04-28T02:01:44;100798.34;;;10.62;96.87
13068;BME280;6600;51.362;6.686;2023-04-28T02:04:10;100801.25;;;10.61;97.78
13068;BME280;6600;51.362;6.686;2023-04-28T02:06:35;100792.56;;;10.65;98.20
13068;BME280;6600;51.362;6.686;2023-04-28T02:09:01;100794.22;;;10.67;98.11
13068;BME280;6600;51.362;6.686;2023-04-28T02:11:26;100792.56;;;10.65;98.61
13068;BME280;6600;51.362;6.686;2023-04-28T02:13:51;100792.75;;;10.71;98.85
13068;BME280;6600;51.362;6.686;2023-04-28T02:16:17;100790.66;;;10.73;99.04
13068;BME280;6600;51.362;6.686;2023-04-28T02:18:42;100791.47;;;10.80;99.36
13068;BME280;6600;51.362;6.686;2023-04-28T02:21:08;100789.84;;;10.79;99.33
13068;BME280;6600;51.362;6.686;2023-04-28T02:23:35;100787.16;;;10.79;99.03
13068;BME280;6600;51.362;6.686;2023-04-28T02:26:01;100785.50;;;10.78;99.32
13068;BME280;6600;51.362;6.686;2023-04-28T02:28:26;100793.53;;;10.78;99.15
13068;BME280;6600;51.362;6.686;2023-04-28T02:30:51;100803.22;;;10.79;99.37
13068;BME280;6600;51.362;6.686;2023-04-28T02:33:17;100806.06;;;10.84;99.63
13068;BME280;6600;51.362;6.686;2023-04-28T02:35:42;100797.44;;;10.82;99.71
13068;BME280;6600;51.362;6.686;2023-04-28T02:38:07;100796.81;;;10.80;100.00
13068;BME280;6600;51.362;6.686;2023-04-28T02:40:32;100797.47;;;10.75;100.00
13068;BME280;6600;51.362;6.686;2023-04-28T02:42:58;100785.94;;;10.75;100.00
13068;BME280;6600;51.362;6.686;2023-04-28T02:45:23;100786.19;;;10.67;100.00
13068;BME280;6600;51.362;6.686;2023-04-28T02:47:48;100787.63;;;10.62;100.00
13068;BME280;6600;51.362;6.686;2023-04-28T02:50:14;100781.44;;;10.62;100.00
13068;BME280;6600;51.362;6.686;2023-04-28T02:52:39;100784.34;;;10.60;100.00
13068;BME280;6600;51.362;6.686;2023-04-28T02:55:05;100786.84;;;10.55;100.00
13068;BME280;6600;51.362;6.686;2023-04-28T02:57:31;100778.59;;;10.57;100.00
13068;BME280;6600;51.362;6.686;2023-04-28T02:59:56;100783.13;;;10.56;100.00
13068;BME280;6600;51.362;6.686;2023-04-28T03:02:21;100782.31;;;10.56;100.00
13068;BME280;6600;51.362;6.686;2023-04-28T03:04:47;100775.28;;;10.55;100.00
13068;BME280;6600;51.362;6.686;2023-04-28T03:07:12;100779.41;;;10.64;100.00
13068;BME280;6600;51.362;6.686;2023-04-28T03:09:37;100778.13;;;10.67;100.00
13068;BME280;6600;51.362;6.686;2023-04-28T03:12:03;100772.78;;;10.67;100.00
13068;BME280;6600;51.362;6.686;2023-04-28T03:14:28;100767.03;;;10.63;100.00
13068;BME280;6600;51.362;6.686;2023-04-28T03:16:53;100766.19;;;10.62;100.00
13068;BME280;6600;51.362;6.686;2023-04-28T03:19:19;100760.38;;;10.72;100.00
13068;BME280;6600;51.362;6.686;2023-04-28T03:21:45;100760.38;;;10.72;100.00
13068;BME280;6600;51.362;6.686;2023-04-28T03:24:10;100758.06;;;10.82;100.00
13068;BME280;6600;51.362;6.686;2023-04-28T03:26:36;100750.41;;;10.86;100.00
13068;BME280;6600;51.362;6.686;2023-04-28T03:29:01;100747.09;;;10.84;100.00
13068;BME280;6600;51.362;6.686;2023-04-28T03:31:26;100747.28;;;10.89;100.00
13068;BME280;6600;51.362;6.686;2023-04-28T03:33:52;100738.44;;;10.88;100.00
13068;BME280;6600;51.362;6.686;2023-04-28T03:36:17;100737.16;;;10.91;100.00
13068;BME280;6600;51.362;6.686;2023-04-28T03:38:42;100730.16;;;10.90;100.00
13068;BME280;6600;51.362;6.686;2023-04-28T03:41:08;100726.44;;;10.91;100.00
13068;BME280;6600;51.362;6.686;2023-04-28T03:43:33;100721.50;;;10.88;100.00
13068;BME280;6600;51.362;6.686;2023-04-28T03:46:02;100719.88;;;10.87;100.00
13068;BME280;6600;51.362;6.686;2023-04-28T03:48:27;100716.50;;;10.98;100.00
13068;BME280;6600;51.362;6.686;2023-04-28T03:50:52;100713.03;;;10.91;100.00
13068;BME280;6600;51.362;6.686;2023-04-28T03:53:18;100703.34;;;10.90;100.00
13068;BME280;6600;51.362;6.686;2023-04-28T03:55:43;100688.91;;;10.91;100.00
13068;BME280;6600;51.362;6.686;2023-04-28T03:58:08;100680.44;;;10.94;100.00
13068;BME280;6600;51.362;6.686;2023-04-28T04:00:34;100669.13;;;10.92;100.00
13068;BME280;6600;51.362;6.686;2023-04-28T04:02:59;100658.22;;;10.87;100.00
13068;BME280;6600;51.362;6.686;2023-04-28T04:05:24;100671.78;;;10.92;100.00
13068;BME280;6600;51.362;6.686;2023-04-28T04:07:50;100684.00;;;10.88;100.00
13068;BME280;6600;51.362;6.686;2023-04-28T04:10:15;100696.94;;;10.91;100.00
13068;BME280;6600;51.362;6.686;2023-04-28T04:12:41;100692.56;;;10.96;100.00
13068;BME280;6600;51.362;6.686;2023-04-28T04:15:07;100685.97;;;10.99;100.00
13068;BME280;6600;51.362;6.686;2023-04-28T04:17:32;100705.19;;;10.96;100.00
13068;BME280;6600;51.362;6.686;2023-04-28T04:19:57;100697.56;;;10.93;100.00
13068;BME280;6600;51.362;6.686;2023-04-28T04:22:23;100700.41;;;10.98;100.00
13068;BME280;6600;51.362;6.686;2023-04-28T04:24:48;100700.25;;;10.93;100.00
13068;BME280;6600;51.362;6.686;2023-04-28T04:27:13;100696.69;;;10.99;100.00
13068;BME280;6600;51.362;6.686;2023-04-28T04:29:39;100695.63;;;11.00;100.00
13068;BME280;6600;51.362;6.686;2023-04-28T04:32:04;100699.53;;;11.04;100.00
13068;BME280;6600;51.362;6.686;2023-04-28T04:34:30;100693.72;;;11.07;100.00
13068;BME280;6600;51.362;6.686;2023-04-28T04:36:56;100694.53;;;11.07;100.00
13068;BME280;6600;51.362;6.686;2023-04-28T04:39:21;100694.53;;;11.07;100.00
13068;BME280;6600;51.362;6.686;2023-04-28T04:41:46;100690.00;;;11.08;100.00
13068;BME280;6600;51.362;6.686;2023-04-28T04:44:12;100681.97;;;11.08;100.00
13068;BME280;6600;51.362;6.686;2023-04-28T04:46:37;100676.97;;;11.11;100.00
13068;BME280;6600;51.362;6.686;2023-04-28T04:49:02;100673.47;;;11.11;100.00
13068;BME280;6600;51.362;6.686;2023-04-28T04:51:28;100677.22;;;11.10;100.00
13068;BME280;6600;51.362;6.686;2023-04-28T04:53:54;100676.16;;;11.11;100.00
13068;BME280;6600;51.362;6.686;2023-04-28T04:56:19;100680.50;;;11.12;100.00
13068;BME280;6600;51.362;6.686;2023-04-28T04:58:45;100673.03;;;11.14;100.00
13068;BME280;6600;51.362;6.686;2023-04-28T05:01:10;100677.53;;;11.20;100.00
13068;BME280;6600;51.362;6.686;2023-04-28T05:03:35;100677.53;;;11.20;100.00
13068;BME280;6600;51.362;6.686;2023-04-28T05:06:00;100673.78;;;11.21;100.00
13068;BME280;6600;51.362;6.686;2023-04-28T05:08:27;100666.38;;;11.23;100.00
13068;BME280;6600;51.362;6.686;2023-04-28T05:10:52;100669.81;;;11.30;100.00
13068;BME280;6600;51.362;6.686;2023-04-28T05:13:18;100668.28;;;11.34;100.00
13068;BME280;6600;51.362;6.686;2023-04-28T05:15:43;100675.31;;;11.35;100.00
13068;BME280;6600;51.362;6.686;2023-04-28T05:18:08;100666.69;;;11.33;100.00
13068;BME280;6600;51.362;6.686;2023-04-28T05:20:36;100662.34;;;11.32;100.00
13068;BME280;6600;51.362;6.686;2023-04-28T05:23:02;100659.84;;;11.37;100.00
13068;BME280;6600;51.362;6.686;2023-04-28T05:25:27;100653.41;;;11.38;100.00
13068;BME280;6600;51.362;6.686;2023-04-28T05:27:53;100646.78;;;11.41;100.00
13068;BME280;6600;51.362;6.686;2023-04-28T05:30:18;100651.09;;;11.42;100.00
13068;BME280;6600;51.362;6.686;2023-04-28T05:32:44;100656.25;;;11.43;100.00
13068;BME280;6600;51.362;6.686;2023-04-28T05:35:09;100649.41;;;11.47;100.00
13068;BME280;6600;51.362;6.686;2023-04-28T05:37:34;100656.19;;;11.50;100.00
13068;BME280;6600;51.362;6.686;2023-04-28T05:40:02;100651.63;;;11.50;100.00
13068;BME280;6600;51.362;6.686;2023-04-28T05:42:27;100659.44;;;11.52;100.00
13068;BME280;6600;51.362;6.686;2023-04-28T05:44:52;100651.63;;;11.50;100.00
13068;BME280;6600;51.362;6.686;2023-04-28T05:47:18;100656.56;;;11.53;100.00
13068;BME280;6600;51.362;6.686;2023-04-28T05:49:43;100652.84;;;11.54;100.00
13068;BME280;6600;51.362;6.686;2023-04-28T05:52:08;100650.00;;;11.49;100.00
13068;BME280;6600;51.362;6.686;2023-04-28T05:54:34;100648.50;;;11.53;100.00
13068;BME280;6600;51.362;6.686;2023-04-28T05:56:59;100650.16;;;11.54;100.00
13068;BME280;6600;51.362;6.686;2023-04-28T05:59:26;100650.28;;;11.59;100.00
13068;BME280;6600;51.362;6.686;2023-04-28T06:01:52;100650.66;;;11.63;100.00
13068;BME280;6600;51.362;6.686;2023-04-28T06:04:17;100642.97;;;11.66;100.00
13068;BME280;6600;51.362;6.686;2023-04-28T06:06:43;100634.44;;;11.76;100.00
13068;BME280;6600;51.362;6.686;2023-04-28T06:09:08;100632.72;;;11.82;100.00
13068;BME280;6600;51.362;6.686;2023-04-28T06:11:33;100633.97;;;11.79;100.00
13068;BME280;6600;51.362;6.686;2023-04-28T06:13:59;100634.34;;;11.83;100.00
13068;BME280;6600;51.362;6.686;2023-04-28T06:16:24;100631.97;;;11.93;100.00
13068;BME280;6600;51.362;6.686;2023-04-28T06:18:50;100621.72;;;12.01;100.00
13068;BME280;6600;51.362;6.686;2023-04-28T06:21:16;100620.72;;;12.14;100.00
13068;BME280;6600;51.362;6.686;2023-04-28T06:23:41;100628.16;;;12.30;100.00
13068;BME280;6600;51.362;6.686;2023-04-28T06:26:07;100629.59;;;12.44;100.00
13068;BME280;6600;51.362;6.686;2023-04-28T06:28:33;100631.25;;;12.57;100.00
13068;BME280;6600;51.362;6.686;2023-04-28T06:30:58;100628.69;;;12.62;100.00
13068;BME280;6600;51.362;6.686;2023-04-28T06:33:24;100635.34;;;12.59;100.00
13068;BME280;6600;51.362;6.686;2023-04-28T06:35:49;100630.44;;;12.56;100.00
13068;BME280;6600;51.362;6.686;2023-04-28T06:38:15;100634.53;;;12.59;100.00
13068;BME280;6600;51.362;6.686;2023-04-28T06:40:40;100631.38;;;12.50;100.00
13068;BME280;6600;51.362;6.686;2023-04-28T06:43:05;100632.09;;;12.57;100.00
13068;BME280;6600;51.362;6.686;2023-04-28T06:45:31;100634.53;;;12.59;99.98
13068;BME280;6600;51.362;6.686;2023-04-28T06:47:56;100636.28;;;12.53;100.00
13068;BME280;6600;51.362;6.686;2023-04-28T06:50:22;100625.78;;;12.63;100.00
13068;BME280;6600;51.362;6.686;2023-04-28T06:52:48;100623.91;;;12.76;100.00
13068;BME280;6600;51.362;6.686;2023-04-28T06:55:14;100620.31;;;12.93;100.00
13068;BME280;6600;51.362;6.686;2023-04-28T06:57:40;100625.47;;;12.95;98.70
13068;BME280;6600;51.362;6.686;2023-04-28T07:00:07;100618.38;;;13.12;98.14
13068;BME280;6600;51.362;6.686;2023-04-28T07:02:33;100628.28;;;13.35;97.51
13068;BME280;6600;51.362;6.686;2023-04-28T07:04:59;100625.59;;;13.46;97.37
13068;BME280;6600;51.362;6.686;2023-04-28T07:07:24;100644.38;;;13.70;96.92
13068;BME280;6600;51.362;6.686;2023-04-28T07:09:50;100634.91;;;13.79;96.46
13068;BME280;6600;51.362;6.686;2023-04-28T07:12:17;100619.44;;;13.86;95.55
13068;BME280;6600;51.362;6.686;2023-04-28T07:14:42;100623.72;;;13.87;94.51
13068;BME280;6600;51.362;6.686;2023-04-28T07:17:08;100624.13;;;13.79;95.12
13068;BME280;6600;51.362;6.686;2023-04-28T07:19:33;100607.88;;;13.62;96.27
13068;BME280;6600;51.362;6.686;2023-04-28T07:21:58;100612.00;;;13.64;97.00
13068;BME280;6600;51.362;6.686;2023-04-28T07:24:24;100618.63;;;13.74;97.28
13068;BME280;6600;51.362;6.686;2023-04-28T07:26:51;100613.72;;;13.71;96.65
13068;BME280;6600;51.362;6.686;2023-04-28T07:29:17;100612.53;;;13.78;97.32
13068;BME280;6600;51.362;6.686;2023-04-28T07:31:42;100618.63;;;13.74;97.47
13068;BME280;6600;51.362;6.686;2023-04-28T07:34:07;100634.66;;;13.80;96.44
13068;BME280;6600;51.362;6.686;2023-04-28T07:36:33;100635.94;;;13.78;96.57
13068;BME280;6600;51.362;6.686;2023-04-28T07:38:59;100645.47;;;13.69;96.78
13068;BME280;6600;51.362;6.686;2023-04-28T07:41:26;100635.63;;;13.62;96.81
13068;BME280;6600;51.362;6.686;2023-04-28T07:43:52;100638.28;;;13.74;96.27
13068;BME280;6600;51.362;6.686;2023-04-28T07:46:17;100637.34;;;13.80;96.92
13068;BME280;6600;51.362;6.686;2023-04-28T07:48:42;100636.72;;;13.90;97.20
13068;BME280;6600;51.362;6.686;2023-04-28T07:51:08;100643.94;;;14.01;96.68
13068;BME280;6600;51.362;6.686;2023-04-28T07:53:34;100640.00;;;13.92;96.04
13068;BME280;6600;51.362;6.686;2023-04-28T07:56:00;100634.63;;;13.92;96.40
13068;BME280;6600;51.362;6.686;2023-04-28T07:58:26;100634.63;;;13.92;96.13
13068;BME280;6600;51.362;6.686;2023-04-28T08:00:51;100635.16;;;14.05;96.58
13068;BME280;6600;51.362;6.686;2023-04-28T08:03:16;100625.41;;;14.16;96.62
13068;BME280;6600;51.362;6.686;2023-04-28T08:05:42;100621.53;;;14.12;96.67
13068;BME280;6600;51.362;6.686;2023-04-28T08:08:09;100622.09;;;14.14;96.32
13068;BME280;6600;51.362;6.686;2023-04-28T08:10:34;100619.34;;;14.09;96.47
13068;BME280;6600;51.362;6.686;2023-04-28T08:12:59;100621.44;;;14.07;96.85
13068;BME280;6600;51.362;6.686;2023-04-28T08:15:25;100606.91;;;14.08;97.73
13068;BME280;6600;51.362;6.686;2023-04-28T08:17:52;100608.75;;;14.19;98.55
13068;BME280;6600;51.362;6.686;2023-04-28T08:20:17;100619.03;;;14.22;98.55
13068;BME280;6600;51.362;6.686;2023-04-28T08:22:44;100638.47;;;14.24;99.03
13068;BME280;6600;51.362;6.686;2023-04-28T08:25:10;100631.66;;;14.33;99.42
13068;BME280;6600;51.362;6.686;2023-04-28T08:27:35;100630.00;;;14.32;98.93
13068;BME280;6600;51.362;6.686;2023-04-28T08:30:02;100617.78;;;14.41;98.78
13068;BME280;6600;51.362;6.686;2023-04-28T08:32:28;100616.41;;;14.55;98.29
13068;BME280;6600;51.362;6.686;2023-04-28T08:34:53;100628.47;;;14.64;98.46
13068;BME280;6600;51.362;6.686;2023-04-28T08:37:19;100631.06;;;14.76;98.01
13068;BME280;6600;51.362;6.686;2023-04-28T08:39:44;100629.19;;;14.77;98.07
13068;BME280;6600;51.362;6.686;2023-04-28T08:42:10;100622.81;;;14.83;98.61
13068;BME280;6600;51.362;6.686;2023-04-28T08:44:39;100627.31;;;14.94;97.84
13068;BME280;6600;51.362;6.686;2023-04-28T08:47:12;100624.03;;;14.92;97.59
13068;BME280;6600;51.362;6.686;2023-04-28T08:49:40;100635.34;;;14.89;97.61
13068;BME280;6600;51.362;6.686;2023-04-28T08:52:11;100633.19;;;14.91;98.00
13068;BME280;6600;51.362;6.686;2023-04-28T08:54:38;100645.47;;;14.82;98.43
13068;BME280;6600;51.362;6.686;2023-04-28T08:57:03;100631.81;;;14.72;98.54
13068;BME280;6600;51.362;6.686;2023-04-28T08:59:29;100627.47;;;14.71;99.28
13068;BME280;6600;51.362;6.686;2023-04-28T09:01:55;100623.06;;;14.81;99.78
13068;BME280;6600;51.362;6.686;2023-04-28T09:04:21;100625.34;;;14.89;100.00
13068;BME280;6600;51.362;6.686;2023-04-28T09:06:46;100620.44;;;15.03;100.00
13068;BME280;6600;51.362;6.686;2023-04-28T09:09:25;100622.69;;;15.11;100.00
13068;BME280;6600;51.362;6.686;2023-04-28T09:11:58;100635.50;;;14.99;98.35
13068;BME280;6600;51.362;6.686;2023-04-28T09:14:28;100630.25;;;15.09;97.81
13068;BME280;6600;51.362;6.686;2023-04-28T09:16:53;100629.09;;;15.05;97.86
13068;BME280;6600;51.362;6.686;2023-04-28T09:19:19;100628.75;;;15.18;98.60
13068;BME280;6600;51.362;6.686;2023-04-28T09:21:55;100617.44;;;15.21;98.76
13068;BME280;6600;51.362;6.686;2023-04-28T09:24:29;100626.63;;;15.20;97.78
13068;BME280;6600;51.362;6.686;2023-04-28T09:26:56;100624.91;;;15.14;97.65
13068;BME280;6600;51.362;6.686;2023-04-28T09:29:21;100623.50;;;15.28;97.29
13068;BME280;6600;51.362;6.686;2023-04-28T09:31:46;100625.59;;;15.43;96.94
13068;BME280;6600;51.362;6.686;2023-04-28T09:34:12;100624.81;;;15.26;95.96
13068;BME280;6600;51.362;6.686;2023-04-28T09:36:37;100631.22;;;15.20;96.31
13068;BME280;6600;51.362;6.686;2023-04-28T09:39:03;100627.44;;;15.21;96.33
13068;BME280;6600;51.362;6.686;2023-04-28T09:41:35;100625.00;;;15.19;97.02
13068;BME280;6600;51.362;6.686;2023-04-28T09:44:14;100617.41;;;15.16;97.36
13068;BME280;6600;51.362;6.686;2023-04-28T09:46:41;100617.94;;;15.18;98.07
13068;BME280;6600;51.362;6.686;2023-04-28T09:49:06;100621.56;;;15.07;99.77
13068;BME280;6600;51.362;6.686;2023-04-28T09:51:33;100617.63;;;15.14;99.77
13068;BME280;6600;51.362;6.686;2023-04-28T09:54:00;100622.34;;;15.24;99.64
13068;BME280;6600;51.362;6.686;2023-04-28T09:56:30;100611.09;;;15.27;99.81
13068;BME280;6600;51.362;6.686;2023-04-28T09:58:56;100603.44;;;15.41;99.20
13068;BME280;6600;51.362;6.686;2023-04-28T10:01:27;100608.22;;;15.55;98.58
13068;BME280;6600;51.362;6.686;2023-04-28T10:03:55;100606.13;;;15.57;98.04
13068;BME280;6600;51.362;6.686;2023-04-28T10:06:21;100616.41;;;15.60;97.39
13068;BME280;6600;51.362;6.686;2023-04-28T10:08:47;100609.31;;;15.54;98.30
13068;BME280;6600;51.362;6.686;2023-04-28T10:11:15;100607.81;;;15.63;98.50
13068;BME280;6600;51.362;6.686;2023-04-28T10:13:42;100614.28;;;15.62;97.93
13068;BME280;6600;51.362;6.686;2023-04-28T10:16:09;100616.41;;;15.60;97.86
13068;BME280;6600;51.362;6.686;2023-04-28T10:18:35;100611.84;;;15.61;98.21
13068;BME280;6600;51.362;6.686;2023-04-28T10:21:02;100608.75;;;15.52;98.73
13068;BME280;6600;51.362;6.686;2023-04-28T10:26:13;100606.25;;;15.68;99.60
13068;BME280;6600;51.362;6.686;2023-04-28T10:28:50;100606.88;;;15.75;98.77
13068;BME280;6600;51.362;6.686;2023-04-28T10:31:20;100603.06;;;15.76;98.91
13068;BME280;6600;51.362;6.686;2023-04-28T10:33:47;100604.72;;;15.77;99.77
13068;BME280;6600;51.362;6.686;2023-04-28T10:36:48;100613.56;;;15.72;100.00
13068;BME280;6600;51.362;6.686;2023-04-28T10:39:19;100600.34;;;15.71;100.00
13068;BME280;6600;51.362;6.686;2023-04-28T10:41:45;100608.75;;;15.96;100.00
13068;BME280;6600;51.362;6.686;2023-04-28T10:47:05;100607.03;;;15.90;100.00
13068;BME280;6600;51.362;6.686;2023-04-28T10:55:27;100597.25;;;15.84;100.00
13068;BME280;6600;51.362;6.686;2023-04-28T11:00:47;100604.41;;;15.73;100.00
13068;BME280;6600;51.362;6.686;2023-04-28T11:06:19;100600.38;;;15.97;100.00
13068;BME280;6600;51.362;6.686;2023-04-28T11:08:48;100601.25;;;16.03;100.00
13068;BME280;6600;51.362;6.686;2023-04-28T11:11:21;100602.84;;;15.99;100.00
13068;BME280;6600;51.362;6.686;2023-04-28T11:13:47;100603.97;;;16.03;100.00
13068;BME280;6600;51.362;6.686;2023-04-28T11:16:14;100608.88;;;16.11;100.00
13068;BME280;6600;51.362;6.686;2023-04-28T11:18:53;100596.34;;;16.00;100.00
13068;BME280;6600;51.362;6.686;2023-04-28T11:21:20;100599.03;;;16.00;100.00
13068;BME280;6600;51.362;6.686;2023-04-28T11:23:46;100598.19;;;15.94;100.00
13068;BME280;6600;51.362;6.686;2023-04-28T11:26:11;100602.84;;;15.99;100.00
13068;BME280;6600;51.362;6.686;2023-04-28T11:28:52;100595.34;;;16.06;100.00
13068;BME280;6600;51.362;6.686;2023-04-28T11:31:18;100600.97;;;16.04;100.00
13068;BME280;6600;51.362;6.686;2023-04-28T11:33:45;100599.09;;;16.05;100.00
13068;BME280;6600;51.362;6.686;2023-04-28T11:36:28;100605.69;;;16.14;100.00
13068;BME280;6600;51.362;6.686;2023-04-28T11:38:54;100609.50;;;16.18;100.00
13068;BME280;6600;51.362;6.686;2023-04-28T11:41:21;100607.72;;;16.29;100.00
13068;BME280;6600;51.362;6.686;2023-04-28T11:43:47;100609.66;;;16.33;100.00
13068;BME280;6600;51.362;6.686;2023-04-28T11:46:16;100598.84;;;16.33;100.00
13068;BME280;6600;51.362;6.686;2023-04-28T11:48:43;100600.97;;;16.31;100.00
13068;BME280;6600;51.362;6.686;2023-04-28T11:51:08;100597.81;;;16.39;100.00
13068;BME280;6600;51.362;6.686;2023-04-28T11:53:43;100598.19;;;16.48;100.00
13068;BME280;6600;51.362;6.686;2023-04-28T11:56:09;100597.00;;;16.65;100.00
13068;BME280;6600;51.362;6.686;2023-04-28T11:58:34;100594.13;;;16.77;100.00
13068;BME280;6600;51.362;6.686;2023-04-28T12:01:10;100592.25;;;16.83;100.00
13068;BME280;6600;51.362;6.686;2023-04-28T12:03:43;100593.22;;;17.03;100.00
13068;BME280;6600;51.362;6.686;2023-04-28T12:06:09;100599.50;;;17.14;100.00
13068;BME280;6600;51.362;6.686;2023-04-28T12:08:34;100595.22;;;17.18;100.00
13068;BME280;6600;51.362;6.686;2023-04-28T12:11:06;100589.31;;;17.31;100.00
13068;BME280;6600;51.362;6.686;2023-04-28T12:13:33;100590.97;;;17.32;100.00
13068;BME280;6600;51.362;6.686;2023-04-28T12:16:01;100592.53;;;17.23;100.00
13068;BME280;6600;51.362;6.686;2023-04-28T12:18:28;100594.31;;;17.49;100.00
13068;BME280;6600;51.362;6.686;2023-04-28T12:20:53;100594.44;;;17.80;100.00
13068;BME280;6600;51.362;6.686;2023-04-28T12:25:55;100587.22;;;18.10;97.93
13068;BME280;6600;51.362;6.686;2023-04-28T12:28:21;100582.09;;;18.34;97.19
13068;BME280;6600;51.362;6.686;2023-04-28T12:30:46;100593.56;;;18.61;95.89
13068;BME280;6600;51.362;6.686;2023-04-28T12:33:26;100588.94;;;18.72;92.94
13068;BME280;6600;51.362;6.686;2023-04-28T12:35:54;100590.84;;;18.56;94.46
13068;BME280;6600;51.362;6.686;2023-04-28T12:38:20;100587.59;;;18.85;95.75
13068;BME280;6600;51.362;6.686;2023-04-28T12:40:46;100575.03;;;19.14;92.43
13068;BME280;6600;51.362;6.686;2023-04-28T12:43:11;100576.06;;;19.33;92.25
13068;BME280;6600;51.362;6.686;2023-04-28T12:45:37;100582.06;;;19.25;90.08
13068;BME280;6600;51.362;6.686;2023-04-28T12:48:02;100576.03;;;19.38;91.14
13068;BME280;6600;51.362;6.686;2023-04-28T12:50:27;100567.38;;;19.46;89.64
13068;BME280;6600;51.362;6.686;2023-04-28T12:52:56;100574.47;;;19.27;89.27
13068;BME280;6600;51.362;6.686;2023-04-28T12:55:22;100568.22;;;19.27;90.14
13068;BME280;6600;51.362;6.686;2023-04-28T12:57:47;100566.81;;;19.39;89.02
13068;BME280;6600;51.362;6.686;2023-04-28T13:00:13;100562.44;;;19.48;88.85
13068;BME280;6600;51.362;6.686;2023-04-28T13:02:42;100555.63;;;19.61;88.41
13068;BME280;6600;51.362;6.686;2023-04-28T13:05:07;100559.72;;;19.53;87.28
13068;BME280;6600;51.362;6.686;2023-04-28T13:07:33;100563.56;;;19.47;87.92
13068;BME280;6600;51.362;6.686;2023-04-28T13:09:58;100553.22;;;19.39;88.57